sensor_id;sensor_type;location;lat;lon;timestamp;P1;durP1;ratioP1;P2;durP2;ratioP2
19907;SDS011;10116;53.112;7.356;2024-03-06T00:01:53;3.63;;;3.43;;
19907;SDS011;10116;53.112;7.356;2024-03-06T00:04:19;3.67;;;3.47;;
19907;SDS011;10116;53.112;7.356;2024-03-06T00:06:45;4.27;;;3.87;;
19907;SDS011;10116;53.112;7.356;2024-03-06T00:09:10;4.40;;;4.10;;
19907;SDS011;10116;53.112;7.356;2024-03-06T00:11:44;3.97;;;3.67;;
19907;SDS011;10116;53.112;7.356;2024-03-06T00:14:10;4.13;;;3.83;;
19907;SDS011;10116;53.112;7.356;2024-03-06T00:16:37;4.07;;;3.77;;
19907;SDS011;10116;53.112;7.356;2024-03-06T00:19:03;3.60;;;3.27;;
19907;SDS011;10116;53.112;7.356;2024-03-06T00:21:29;3.77;;;3.47;;
19907;SDS011;10116;53.112;7.356;2024-03-06T00:23:55;5.20;;;4.10;;
19907;SDS011;10116;53.112;7.356;2024-03-06T00:26:20;3.93;;;3.63;;
19907;SDS011;10116;53.112;7.356;2024-03-06T00:28:46;3.90;;;3.70;;
19907;SDS011;10116;53.112;7.356;2024-03-06T00:31:12;3.80;;;3.50;;
19907;SDS011;10116;53.112;7.356;2024-03-06T00:33:38;4.80;;;3.63;;
19907;SDS011;10116;53.112;7.356;2024-03-06T00:36:04;3.77;;;3.47;;
19907;SDS011;10116;53.112;7.356;2024-03-06T00:38:31;3.70;;;3.40;;
19907;SDS011;10116;53.112;7.356;2024-03-06T00:40:56;4.40;;;4.03;;
19907;SDS011;10116;53.112;7.356;2024-03-06T00:43:22;3.30;;;3.10;;
19907;SDS011;10116;53.112;7.356;2024-03-06T00:45:48;4.17;;;3.87;;
19907;SDS011;10116;53.112;7.356;2024-03-06T00:48:14;4.13;;;3.50;;
19907;SDS011;10116;53.112;7.356;2024-03-06T00:50:40;4.20;;;3.30;;
19907;SDS011;10116;53.112;7.356;2024-03-06T00:53:06;2.97;;;2.80;;
19907;SDS011;10116;53.112;7.356;2024-03-06T00:55:31;3.73;;;3.43;;
19907;SDS011;10116;53.112;7.356;2024-03-06T00:57:57;3.80;;;3.50;;
19907;SDS011;10116;53.112;7.356;2024-03-06T01:00:23;3.80;;;3.50;;
19907;SDS011;10116;53.112;7.356;2024-03-06T01:02:48;4.80;;;3.50;;
19907;SDS011;10116;53.112;7.356;2024-03-06T01:05:14;4.23;;;3.73;;
19907;SDS011;10116;53.112;7.356;2024-03-06T01:07:40;6.23;;;3.70;;
19907;SDS011;10116;53.112;7.356;2024-03-06T01:10:06;3.70;;;3.40;;
19907;SDS011;10116;53.112;7.356;2024-03-06T01:12:33;4.70;;;4.30;;
19907;SDS011;10116;53.112;7.356;2024-03-06T01:14:59;5.20;;;3.60;;
19907;SDS011;10116;53.112;7.356;2024-03-06T01:17:25;4.07;;;3.50;;
19907;SDS011;10116;53.112;7.356;2024-03-06T01:19:51;4.57;;;4.17;;
19907;SDS011;10116;53.112;7.356;2024-03-06T01:22:17;4.20;;;3.90;;
19907;SDS011;10116;53.112;7.356;2024-03-06T01:24:43;5.47;;;4.07;;
19907;SDS011;10116;53.112;7.356;2024-03-06T01:27:09;3.77;;;3.57;;
19907;SDS011;10116;53.112;7.356;2024-03-06T01:29:35;3.30;;;3.10;;
19907;SDS011;10116;53.112;7.356;2024-03-06T01:32:01;3.47;;;3.27;;
19907;SDS011;10116;53.112;7.356;2024-03-06T01:34:27;3.40;;;3.20;;
19907;SDS011;10116;53.112;7.356;2024-03-06T01:36:53;4.60;;;3.87;;
19907;SDS011;10116;53.112;7.356;2024-03-06T01:39:18;3.90;;;3.50;;
19907;SDS011;10116;53.112;7.356;2024-03-06T01:41:47;3.90;;;3.60;;
19907;SDS011;10116;53.112;7.356;2024-03-06T01:44:15;4.20;;;3.63;;
19907;SDS011;10116;53.112;7.356;2024-03-06T01:46:41;3.73;;;3.43;;
19907;SDS011;10116;53.112;7.356;2024-03-06T01:49:08;3.67;;;3.40;;
19907;SDS011;10116;53.112;7.356;2024-03-06T01:51:34;3.97;;;3.67;;
19907;SDS011;10116;53.112;7.356;2024-03-06T01:54:01;3.43;;;3.13;;
19907;SDS011;10116;53.112;7.356;2024-03-06T01:56:29;3.70;;;3.47;;
19907;SDS011;10116;53.112;7.356;2024-03-06T01:58:56;4.13;;;3.80;;
19907;SDS011;10116;53.112;7.356;2024-03-06T02:01:23;4.57;;;3.43;;
19907;SDS011;10116;53.112;7.356;2024-03-06T02:03:49;4.93;;;3.80;;
19907;SDS011;10116;53.112;7.356;2024-03-06T02:06:16;3.70;;;3.40;;
19907;SDS011;10116;53.112;7.356;2024-03-06T02:08:44;3.80;;;3.60;;
19907;SDS011;10116;53.112;7.356;2024-03-06T02:11:11;4.73;;;3.53;;
19907;SDS011;10116;53.112;7.356;2024-03-06T02:13:37;4.10;;;3.80;;
19907;SDS011;10116;53.112;7.356;2024-03-06T02:16:04;4.20;;;3.80;;
19907;SDS011;10116;53.112;7.356;2024-03-06T02:18:30;3.90;;;3.60;;
19907;SDS011;10116;53.112;7.356;2024-03-06T02:20:56;6.50;;;3.53;;
19907;SDS011;10116;53.112;7.356;2024-03-06T02:23:22;3.73;;;3.40;;
19907;SDS011;10116;53.112;7.356;2024-03-06T02:25:47;4.50;;;3.93;;
19907;SDS011;10116;53.112;7.356;2024-03-06T02:28:13;4.47;;;4.10;;
19907;SDS011;10116;53.112;7.356;2024-03-06T02:30:39;4.30;;;4.10;;
19907;SDS011;10116;53.112;7.356;2024-03-06T02:33:07;7.93;;;3.83;;
19907;SDS011;10116;53.112;7.356;2024-03-06T02:35:34;4.03;;;3.77;;
19907;SDS011;10116;53.112;7.356;2024-03-06T02:38:01;3.63;;;3.43;;
19907;SDS011;10116;53.112;7.356;2024-03-06T02:40:29;3.63;;;3.43;;
19907;SDS011;10116;53.112;7.356;2024-03-06T02:42:58;4.50;;;4.20;;
19907;SDS011;10116;53.112;7.356;2024-03-06T02:45:23;4.90;;;4.33;;
19907;SDS011;10116;53.112;7.356;2024-03-06T02:47:49;4.43;;;4.03;;
19907;SDS011;10116;53.112;7.356;2024-03-06T02:50:15;5.03;;;3.70;;
19907;SDS011;10116;53.112;7.356;2024-03-06T02:52:41;4.10;;;3.80;;
19907;SDS011;10116;53.112;7.356;2024-03-06T02:55:06;4.20;;;3.90;;
19907;SDS011;10116;53.112;7.356;2024-03-06T02:57:32;4.30;;;4.00;;
19907;SDS011;10116;53.112;7.356;2024-03-06T02:59:58;4.17;;;3.87;;
19907;SDS011;10116;53.112;7.356;2024-03-06T03:02:24;4.17;;;3.90;;
19907;SDS011;10116;53.112;7.356;2024-03-06T03:04:51;3.97;;;3.67;;
19907;SDS011;10116;53.112;7.356;2024-03-06T03:07:19;3.87;;;3.57;;
19907;SDS011;10116;53.112;7.356;2024-03-06T03:09:45;3.40;;;3.20;;
19907;SDS011;10116;53.112;7.356;2024-03-06T03:12:12;3.83;;;3.60;;
19907;SDS011;10116;53.112;7.356;2024-03-06T03:14:39;4.30;;;3.97;;
19907;SDS011;10116;53.112;7.356;2024-03-06T03:17:05;3.83;;;3.53;;
19907;SDS011;10116;53.112;7.356;2024-03-06T03:19:32;3.47;;;3.27;;
19907;SDS011;10116;53.112;7.356;2024-03-06T03:21:57;8.13;;;3.90;;
19907;SDS011;10116;53.112;7.356;2024-03-06T03:24:23;4.40;;;4.00;;
19907;SDS011;10116;53.112;7.356;2024-03-06T03:26:51;3.83;;;3.63;;
19907;SDS011;10116;53.112;7.356;2024-03-06T03:29:17;4.17;;;3.87;;
19907;SDS011;10116;53.112;7.356;2024-03-06T03:31:43;3.67;;;3.37;;
19907;SDS011;10116;53.112;7.356;2024-03-06T03:34:08;3.43;;;3.23;;
19907;SDS011;10116;53.112;7.356;2024-03-06T03:36:39;3.50;;;3.30;;
19907;SDS011;10116;53.112;7.356;2024-03-06T03:39:09;4.40;;;4.10;;
19907;SDS011;10116;53.112;7.356;2024-03-06T03:41:47;4.43;;;3.60;;
19907;SDS011;10116;53.112;7.356;2024-03-06T03:44:13;4.20;;;3.90;;
19907;SDS011;10116;53.112;7.356;2024-03-06T03:46:40;3.90;;;3.60;;
19907;SDS011;10116;53.112;7.356;2024-03-06T03:49:06;3.40;;;3.20;;
19907;SDS011;10116;53.112;7.356;2024-03-06T03:51:31;4.10;;;3.90;;
19907;SDS011;10116;53.112;7.356;2024-03-06T03:53:57;4.17;;;3.97;;
19907;SDS011;10116;53.112;7.356;2024-03-06T03:56:23;3.80;;;3.60;;
19907;SDS011;10116;53.112;7.356;2024-03-06T03:58:48;3.97;;;3.50;;
19907;SDS011;10116;53.112;7.356;2024-03-06T04:01:14;4.07;;;3.70;;
19907;SDS011;10116;53.112;7.356;2024-03-06T04:03:40;4.77;;;3.60;;
19907;SDS011;10116;53.112;7.356;2024-03-06T04:06:07;4.10;;;3.83;;
19907;SDS011;10116;53.112;7.356;2024-03-06T04:08:33;4.10;;;3.80;;
19907;SDS011;10116;53.112;7.356;2024-03-06T04:10:59;3.93;;;3.70;;
19907;SDS011;10116;53.112;7.356;2024-03-06T04:13:25;3.60;;;3.40;;
19907;SDS011;10116;53.112;7.356;2024-03-06T04:15:50;3.87;;;3.67;;
19907;SDS011;10116;53.112;7.356;2024-03-06T04:18:16;4.30;;;3.87;;
19907;SDS011;10116;53.112;7.356;2024-03-06T04:20:41;4.77;;;3.57;;
19907;SDS011;10116;53.112;7.356;2024-03-06T04:23:07;4.23;;;3.80;;
19907;SDS011;10116;53.112;7.356;2024-03-06T04:25:33;3.87;;;3.60;;
19907;SDS011;10116;53.112;7.356;2024-03-06T04:27:58;3.83;;;3.53;;
19907;SDS011;10116;53.112;7.356;2024-03-06T04:30:24;4.13;;;3.90;;
19907;SDS011;10116;53.112;7.356;2024-03-06T04:32:50;3.57;;;3.37;;
19907;SDS011;10116;53.112;7.356;2024-03-06T04:35:15;3.77;;;3.57;;
19907;SDS011;10116;53.112;7.356;2024-03-06T04:37:41;4.23;;;3.93;;
19907;SDS011;10116;53.112;7.356;2024-03-06T04:40:07;3.83;;;3.63;;
19907;SDS011;10116;53.112;7.356;2024-03-06T04:42:34;4.33;;;4.07;;
19907;SDS011;10116;53.112;7.356;2024-03-06T04:45:03;4.20;;;3.90;;
19907;SDS011;10116;53.112;7.356;2024-03-06T04:47:34;4.40;;;3.87;;
19907;SDS011;10116;53.112;7.356;2024-03-06T04:50:00;3.77;;;3.47;;
19907;SDS011;10116;53.112;7.356;2024-03-06T04:52:25;3.67;;;3.37;;
19907;SDS011;10116;53.112;7.356;2024-03-06T04:54:51;3.97;;;3.77;;
19907;SDS011;10116;53.112;7.356;2024-03-06T04:57:16;3.90;;;3.70;;
19907;SDS011;10116;53.112;7.356;2024-03-06T04:59:42;5.47;;;3.70;;
19907;SDS011;10116;53.112;7.356;2024-03-06T05:02:08;3.90;;;3.70;;
19907;SDS011;10116;53.112;7.356;2024-03-06T05:04:33;3.80;;;3.60;;
19907;SDS011;10116;53.112;7.356;2024-03-06T05:06:59;3.43;;;3.23;;
19907;SDS011;10116;53.112;7.356;2024-03-06T05:09:25;4.10;;;3.63;;
19907;SDS011;10116;53.112;7.356;2024-03-06T05:11:51;3.97;;;3.70;;
19907;SDS011;10116;53.112;7.356;2024-03-06T05:14:17;3.63;;;3.43;;
19907;SDS011;10116;53.112;7.356;2024-03-06T05:16:42;3.77;;;3.57;;
19907;SDS011;10116;53.112;7.356;2024-03-06T05:19:08;4.20;;;3.90;;
19907;SDS011;10116;53.112;7.356;2024-03-06T05:21:35;3.80;;;3.60;;
19907;SDS011;10116;53.112;7.356;2024-03-06T05:24:01;4.50;;;4.10;;
19907;SDS011;10116;53.112;7.356;2024-03-06T05:26:27;4.00;;;3.70;;
19907;SDS011;10116;53.112;7.356;2024-03-06T05:28:53;4.33;;;4.03;;
19907;SDS011;10116;53.112;7.356;2024-03-06T05:31:19;4.23;;;3.93;;
19907;SDS011;10116;53.112;7.356;2024-03-06T05:33:48;4.30;;;4.00;;
19907;SDS011;10116;53.112;7.356;2024-03-06T05:36:16;4.10;;;3.90;;
19907;SDS011;10116;53.112;7.356;2024-03-06T05:38:42;6.87;;;4.20;;
19907;SDS011;10116;53.112;7.356;2024-03-06T05:41:12;4.73;;;4.43;;
19907;SDS011;10116;53.112;7.356;2024-03-06T05:43:38;4.60;;;4.13;;
19907;SDS011;10116;53.112;7.356;2024-03-06T05:46:06;6.17;;;4.60;;
19907;SDS011;10116;53.112;7.356;2024-03-06T05:48:31;4.87;;;4.47;;
19907;SDS011;10116;53.112;7.356;2024-03-06T05:50:58;4.73;;;4.37;;
19907;SDS011;10116;53.112;7.356;2024-03-06T05:53:24;4.40;;;4.10;;
19907;SDS011;10116;53.112;7.356;2024-03-06T05:55:50;5.60;;;4.50;;
19907;SDS011;10116;53.112;7.356;2024-03-06T05:58:15;4.67;;;4.37;;
19907;SDS011;10116;53.112;7.356;2024-03-06T06:00:41;4.63;;;4.27;;
19907;SDS011;10116;53.112;7.356;2024-03-06T06:03:07;5.03;;;4.63;;
19907;SDS011;10116;53.112;7.356;2024-03-06T06:05:36;4.90;;;4.50;;
19907;SDS011;10116;53.112;7.356;2024-03-06T06:08:04;5.17;;;4.87;;
19907;SDS011;10116;53.112;7.356;2024-03-06T06:10:30;4.80;;;4.40;;
19907;SDS011;10116;53.112;7.356;2024-03-06T06:12:55;3.87;;;3.63;;
19907;SDS011;10116;53.112;7.356;2024-03-06T06:15:24;5.17;;;4.77;;
19907;SDS011;10116;53.112;7.356;2024-03-06T06:17:50;4.90;;;4.50;;
19907;SDS011;10116;53.112;7.356;2024-03-06T06:20:15;4.97;;;4.50;;
19907;SDS011;10116;53.112;7.356;2024-03-06T06:22:44;5.77;;;5.20;;
19907;SDS011;10116;53.112;7.356;2024-03-06T06:25:17;7.40;;;6.57;;
19907;SDS011;10116;53.112;7.356;2024-03-06T06:27:43;6.20;;;5.70;;
19907;SDS011;10116;53.112;7.356;2024-03-06T06:30:09;5.57;;;5.10;;
19907;SDS011;10116;53.112;7.356;2024-03-06T06:32:37;10.73;;;5.63;;
19907;SDS011;10116;53.112;7.356;2024-03-06T06:35:03;6.63;;;4.77;;
19907;SDS011;10116;53.112;7.356;2024-03-06T06:37:30;6.23;;;4.90;;
19907;SDS011;10116;53.112;7.356;2024-03-06T06:39:56;5.83;;;5.40;;
19907;SDS011;10116;53.112;7.356;2024-03-06T06:42:21;5.00;;;4.60;;
19907;SDS011;10116;53.112;7.356;2024-03-06T06:44:47;5.40;;;4.90;;
19907;SDS011;10116;53.112;7.356;2024-03-06T06:47:12;6.30;;;5.70;;
19907;SDS011;10116;53.112;7.356;2024-03-06T06:49:38;5.83;;;5.30;;
19907;SDS011;10116;53.112;7.356;2024-03-06T06:52:04;5.40;;;5.00;;
19907;SDS011;10116;53.112;7.356;2024-03-06T06:54:29;5.57;;;5.17;;
19907;SDS011;10116;53.112;7.356;2024-03-06T06:56:55;5.57;;;5.07;;
19907;SDS011;10116;53.112;7.356;2024-03-06T06:59:21;6.47;;;5.90;;
19907;SDS011;10116;53.112;7.356;2024-03-06T07:01:48;5.70;;;5.20;;
19907;SDS011;10116;53.112;7.356;2024-03-06T07:04:13;5.30;;;4.90;;
19907;SDS011;10116;53.112;7.356;2024-03-06T07:06:41;6.17;;;5.57;;
19907;SDS011;10116;53.112;7.356;2024-03-06T07:09:07;5.90;;;5.40;;
19907;SDS011;10116;53.112;7.356;2024-03-06T07:11:34;6.10;;;5.50;;
19907;SDS011;10116;53.112;7.356;2024-03-06T07:14:00;5.73;;;5.30;;
19907;SDS011;10116;53.112;7.356;2024-03-06T07:16:25;5.60;;;5.10;;
19907;SDS011;10116;53.112;7.356;2024-03-06T07:18:51;6.10;;;5.60;;
19907;SDS011;10116;53.112;7.356;2024-03-06T07:21:16;5.53;;;5.17;;
19907;SDS011;10116;53.112;7.356;2024-03-06T07:23:43;7.77;;;5.27;;
19907;SDS011;10116;53.112;7.356;2024-03-06T07:26:09;6.10;;;5.60;;
19907;SDS011;10116;53.112;7.356;2024-03-06T07:28:35;5.93;;;5.33;;
19907;SDS011;10116;53.112;7.356;2024-03-06T07:31:02;6.40;;;5.80;;
19907;SDS011;10116;53.112;7.356;2024-03-06T07:33:28;5.63;;;5.23;;
19907;SDS011;10116;53.112;7.356;2024-03-06T07:35:53;6.40;;;5.80;;
19907;SDS011;10116;53.112;7.356;2024-03-06T07:38:19;5.70;;;5.10;;
19907;SDS011;10116;53.112;7.356;2024-03-06T07:40:45;5.90;;;5.40;;
19907;SDS011;10116;53.112;7.356;2024-03-06T07:43:11;6.00;;;5.50;;
19907;SDS011;10116;53.112;7.356;2024-03-06T07:45:37;5.97;;;5.53;;
19907;SDS011;10116;53.112;7.356;2024-03-06T07:48:03;6.57;;;5.97;;
19907;SDS011;10116;53.112;7.356;2024-03-06T07:50:29;5.80;;;5.30;;
19907;SDS011;10116;53.112;7.356;2024-03-06T07:52:54;5.80;;;5.40;;
19907;SDS011;10116;53.112;7.356;2024-03-06T07:55:20;6.33;;;5.73;;
19907;SDS011;10116;53.112;7.356;2024-03-06T07:57:47;6.23;;;5.73;;
19907;SDS011;10116;53.112;7.356;2024-03-06T08:00:13;5.93;;;5.43;;
19907;SDS011;10116;53.112;7.356;2024-03-06T08:02:44;6.20;;;5.67;;
19907;SDS011;10116;53.112;7.356;2024-03-06T08:05:15;6.33;;;5.73;;
19907;SDS011;10116;53.112;7.356;2024-03-06T08:07:41;6.20;;;5.70;;
19907;SDS011;10116;53.112;7.356;2024-03-06T08:10:08;5.93;;;5.43;;
19907;SDS011;10116;53.112;7.356;2024-03-06T08:12:34;6.13;;;5.63;;
19907;SDS011;10116;53.112;7.356;2024-03-06T08:15:00;6.07;;;5.53;;
19907;SDS011;10116;53.112;7.356;2024-03-06T08:17:27;6.03;;;5.63;;
19907;SDS011;10116;53.112;7.356;2024-03-06T08:19:53;6.07;;;5.57;;
19907;SDS011;10116;53.112;7.356;2024-03-06T08:22:18;6.03;;;5.60;;
19907;SDS011;10116;53.112;7.356;2024-03-06T08:24:44;6.77;;;6.10;;
19907;SDS011;10116;53.112;7.356;2024-03-06T08:27:09;6.50;;;6.00;;
19907;SDS011;10116;53.112;7.356;2024-03-06T08:29:35;6.57;;;6.07;;
19907;SDS011;10116;53.112;7.356;2024-03-06T08:32:01;8.73;;;6.60;;
19907;SDS011;10116;53.112;7.356;2024-03-06T08:34:26;6.43;;;5.83;;
19907;SDS011;10116;53.112;7.356;2024-03-06T08:36:53;6.30;;;5.80;;
19907;SDS011;10116;53.112;7.356;2024-03-06T08:39:29;6.07;;;5.47;;
19907;SDS011;10116;53.112;7.356;2024-03-06T08:42:03;6.83;;;6.23;;
19907;SDS011;10116;53.112;7.356;2024-03-06T08:44:30;6.40;;;5.90;;
19907;SDS011;10116;53.112;7.356;2024-03-06T08:47:01;8.93;;;6.20;;
19907;SDS011;10116;53.112;7.356;2024-03-06T08:49:27;6.43;;;5.93;;
19907;SDS011;10116;53.112;7.356;2024-03-06T08:51:52;6.53;;;5.93;;
19907;SDS011;10116;53.112;7.356;2024-03-06T08:54:18;6.97;;;6.37;;
19907;SDS011;10116;53.112;7.356;2024-03-06T08:56:43;6.60;;;6.00;;
19907;SDS011;10116;53.112;7.356;2024-03-06T08:59:09;8.10;;;7.10;;
19907;SDS011;10116;53.112;7.356;2024-03-06T09:01:35;6.60;;;6.10;;
19907;SDS011;10116;53.112;7.356;2024-03-06T09:04:00;6.93;;;6.33;;
19907;SDS011;10116;53.112;7.356;2024-03-06T09:06:26;6.70;;;6.20;;
19907;SDS011;10116;53.112;7.356;2024-03-06T09:08:52;7.60;;;6.90;;
19907;SDS011;10116;53.112;7.356;2024-03-06T09:11:17;7.17;;;6.57;;
19907;SDS011;10116;53.112;7.356;2024-03-06T09:13:43;8.50;;;7.70;;
19907;SDS011;10116;53.112;7.356;2024-03-06T09:16:09;7.00;;;6.30;;
19907;SDS011;10116;53.112;7.356;2024-03-06T09:18:34;8.67;;;7.80;;
19907;SDS011;10116;53.112;7.356;2024-03-06T09:21:00;7.13;;;6.63;;
19907;SDS011;10116;53.112;7.356;2024-03-06T09:23:27;7.27;;;6.70;;
19907;SDS011;10116;53.112;7.356;2024-03-06T09:25:55;9.67;;;8.40;;
19907;SDS011;10116;53.112;7.356;2024-03-06T09:28:20;11.77;;;8.10;;
19907;SDS011;10116;53.112;7.356;2024-03-06T09:30:47;7.70;;;7.00;;
19907;SDS011;10116;53.112;7.356;2024-03-06T09:33:13;8.80;;;7.90;;
19907;SDS011;10116;53.112;7.356;2024-03-06T09:35:39;7.43;;;6.80;;
19907;SDS011;10116;53.112;7.356;2024-03-06T09:38:10;9.30;;;8.40;;
19907;SDS011;10116;53.112;7.356;2024-03-06T09:40:38;8.37;;;7.60;;
19907;SDS011;10116;53.112;7.356;2024-03-06T09:43:06;9.30;;;8.00;;
19907;SDS011;10116;53.112;7.356;2024-03-06T09:45:32;8.90;;;7.90;;
19907;SDS011;10116;53.112;7.356;2024-03-06T09:47:58;10.77;;;8.30;;
19907;SDS011;10116;53.112;7.356;2024-03-06T09:50:24;10.93;;;8.67;;
19907;SDS011;10116;53.112;7.356;2024-03-06T09:52:51;9.67;;;7.77;;
19907;SDS011;10116;53.112;7.356;2024-03-06T09:55:20;9.30;;;8.40;;
19907;SDS011;10116;53.112;7.356;2024-03-06T09:57:46;9.60;;;8.70;;
19907;SDS011;10116;53.112;7.356;2024-03-06T10:00:13;10.57;;;9.10;;
19907;SDS011;10116;53.112;7.356;2024-03-06T10:02:54;10.33;;;8.20;;
19907;SDS011;10116;53.112;7.356;2024-03-06T10:05:24;9.47;;;8.57;;
19907;SDS011;10116;53.112;7.356;2024-03-06T10:07:50;8.60;;;7.77;;
19907;SDS011;10116;53.112;7.356;2024-03-06T10:10:17;8.20;;;7.40;;
19907;SDS011;10116;53.112;7.356;2024-03-06T10:12:46;9.60;;;7.20;;
19907;SDS011;10116;53.112;7.356;2024-03-06T10:15:15;8.53;;;7.30;;
19907;SDS011;10116;53.112;7.356;2024-03-06T10:17:40;11.93;;;8.60;;
19907;SDS011;10116;53.112;7.356;2024-03-06T10:20:16;11.40;;;7.10;;
19907;SDS011;10116;53.112;7.356;2024-03-06T10:22:52;9.90;;;7.90;;
19907;SDS011;10116;53.112;7.356;2024-03-06T10:25:22;8.80;;;7.87;;
19907;SDS011;10116;53.112;7.356;2024-03-06T10:28:04;9.70;;;7.90;;
19907;SDS011;10116;53.112;7.356;2024-03-06T10:30:33;9.50;;;8.47;;
19907;SDS011;10116;53.112;7.356;2024-03-06T10:33:01;12.53;;;7.60;;
19907;SDS011;10116;53.112;7.356;2024-03-06T10:35:31;14.23;;;8.00;;
19907;SDS011;10116;53.112;7.356;2024-03-06T10:37:57;8.90;;;7.30;;
19907;SDS011;10116;53.112;7.356;2024-03-06T10:40:27;8.43;;;7.20;;
19907;SDS011;10116;53.112;7.356;2024-03-06T10:42:59;10.23;;;7.73;;
19907;SDS011;10116;53.112;7.356;2024-03-06T10:45:47;8.70;;;7.70;;
19907;SDS011;10116;53.112;7.356;2024-03-06T10:48:32;8.40;;;7.00;;
19907;SDS011;10116;53.112;7.356;2024-03-06T10:50:59;8.93;;;8.03;;
19907;SDS011;10116;53.112;7.356;2024-03-06T10:53:28;8.33;;;7.50;;
19907;SDS011;10116;53.112;7.356;2024-03-06T10:55:54;8.30;;;7.30;;
19907;SDS011;10116;53.112;7.356;2024-03-06T10:58:22;8.40;;;7.40;;
19907;SDS011;10116;53.112;7.356;2024-03-06T11:00:48;10.30;;;7.63;;
19907;SDS011;10116;53.112;7.356;2024-03-06T11:03:16;8.47;;;7.40;;
19907;SDS011;10116;53.112;7.356;2024-03-06T11:05:42;9.27;;;8.10;;
19907;SDS011;10116;53.112;7.356;2024-03-06T11:08:12;10.50;;;7.60;;
19907;SDS011;10116;53.112;7.356;2024-03-06T11:10:39;9.07;;;8.20;;
19907;SDS011;10116;53.112;7.356;2024-03-06T11:15:56;8.17;;;7.37;;
19907;SDS011;10116;53.112;7.356;2024-03-06T11:23:27;8.90;;;7.87;;
19907;SDS011;10116;53.112;7.356;2024-03-06T11:28:28;8.03;;;7.30;;
19907;SDS011;10116;53.112;7.356;2024-03-06T11:31:05;8.17;;;7.37;;
19907;SDS011;10116;53.112;7.356;2024-03-06T11:33:43;9.50;;;7.47;;
19907;SDS011;10116;53.112;7.356;2024-03-06T11:36:22;8.27;;;7.47;;
19907;SDS011;10116;53.112;7.356;2024-03-06T11:39:03;7.90;;;7.10;;
19907;SDS011;10116;53.112;7.356;2024-03-06T11:41:46;8.77;;;7.87;;
19907;SDS011;10116;53.112;7.356;2024-03-06T11:44:17;8.57;;;7.23;;
19907;SDS011;10116;53.112;7.356;2024-03-06T11:47:19;8.80;;;7.13;;
19907;SDS011;10116;53.112;7.356;2024-03-06T11:49:37;11.50;;;7.70;;
19907;SDS011;10116;53.112;7.356;2024-03-06T11:52:04;8.90;;;7.73;;
19907;SDS011;10116;53.112;7.356;2024-03-06T11:54:33;10.37;;;7.60;;
19907;SDS011;10116;53.112;7.356;2024-03-06T11:56:59;8.50;;;7.70;;
19907;SDS011;10116;53.112;7.356;2024-03-06T11:59:36;8.30;;;7.40;;
19907;SDS011;10116;53.112;7.356;2024-03-06T12:02:05;8.10;;;7.27;;
19907;SDS011;10116;53.112;7.356;2024-03-06T12:04:32;9.03;;;8.13;;
19907;SDS011;10116;53.112;7.356;2024-03-06T12:06:59;8.77;;;7.80;;
19907;SDS011;10116;53.112;7.356;2024-03-06T12:09:30;8.17;;;7.33;;
19907;SDS011;10116;53.112;7.356;2024-03-06T12:11:55;8.30;;;7.50;;
19907;SDS011;10116;53.112;7.356;2024-03-06T12:14:25;8.00;;;7.27;;
19907;SDS011;10116;53.112;7.356;2024-03-06T12:16:55;8.73;;;7.83;;
19907;SDS011;10116;53.112;7.356;2024-03-06T12:19:28;10.70;;;8.47;;
19907;SDS011;10116;53.112;7.356;2024-03-06T12:21:59;8.90;;;8.00;;
19907;SDS011;10116;53.112;7.356;2024-03-06T12:24:25;10.57;;;8.47;;
19907;SDS011;10116;53.112;7.356;2024-03-06T12:27:00;10.10;;;8.37;;
19907;SDS011;10116;53.112;7.356;2024-03-06T12:29:28;8.73;;;7.93;;
19907;SDS011;10116;53.112;7.356;2024-03-06T12:31:58;11.57;;;8.60;;
19907;SDS011;10116;53.112;7.356;2024-03-06T12:34:24;8.97;;;8.07;;
19907;SDS011;10116;53.112;7.356;2024-03-06T12:36:50;9.50;;;8.60;;
19907;SDS011;10116;53.112;7.356;2024-03-06T12:39:16;9.20;;;8.20;;
19907;SDS011;10116;53.112;7.356;2024-03-06T12:41:46;9.13;;;7.87;;
19907;SDS011;10116;53.112;7.356;2024-03-06T12:44:12;10.83;;;8.50;;
19907;SDS011;10116;53.112;7.356;2024-03-06T12:46:39;9.00;;;8.10;;
19907;SDS011;10116;53.112;7.356;2024-03-06T12:49:06;9.53;;;8.63;;
19907;SDS011;10116;53.112;7.356;2024-03-06T12:51:32;10.00;;;8.50;;
19907;SDS011;10116;53.112;7.356;2024-03-06T12:53:57;9.20;;;7.93;;
19907;SDS011;10116;53.112;7.356;2024-03-06T12:56:23;9.03;;;8.13;;
19907;SDS011;10116;53.112;7.356;2024-03-06T12:58:50;9.17;;;8.27;;
19907;SDS011;10116;53.112;7.356;2024-03-06T13:01:16;9.50;;;7.67;;
19907;SDS011;10116;53.112;7.356;2024-03-06T13:03:42;8.33;;;7.57;;
19907;SDS011;10116;53.112;7.356;2024-03-06T13:06:07;11.30;;;8.00;;
19907;SDS011;10116;53.112;7.356;2024-03-06T13:08:33;9.07;;;8.20;;
19907;SDS011;10116;53.112;7.356;2024-03-06T13:10:59;9.53;;;8.53;;
19907;SDS011;10116;53.112;7.356;2024-03-06T13:13:25;9.20;;;8.40;;
19907;SDS011;10116;53.112;7.356;2024-03-06T13:15:53;10.33;;;9.00;;
19907;SDS011;10116;53.112;7.356;2024-03-06T13:18:19;9.30;;;8.40;;
19907;SDS011;10116;53.112;7.356;2024-03-06T13:20:45;11.10;;;9.37;;
19907;SDS011;10116;53.112;7.356;2024-03-06T13:23:11;9.37;;;8.50;;
19907;SDS011;10116;53.112;7.356;2024-03-06T13:25:37;9.40;;;8.40;;
19907;SDS011;10116;53.112;7.356;2024-03-06T13:28:03;10.80;;;9.03;;
19907;SDS011;10116;53.112;7.356;2024-03-06T13:30:30;9.60;;;8.67;;
19907;SDS011;10116;53.112;7.356;2024-03-06T13:32:55;9.37;;;8.53;;
19907;SDS011;10116;53.112;7.356;2024-03-06T13:35:21;9.43;;;8.53;;
19907;SDS011;10116;53.112;7.356;2024-03-06T13:37:47;9.80;;;8.70;;
19907;SDS011;10116;53.112;7.356;2024-03-06T13:40:14;9.40;;;8.50;;
19907;SDS011;10116;53.112;7.356;2024-03-06T13:42:39;9.83;;;8.80;;
19907;SDS011;10116;53.112;7.356;2024-03-06T13:45:06;9.80;;;8.80;;
19907;SDS011;10116;53.112;7.356;2024-03-06T13:47:40;10.17;;;9.27;;
19907;SDS011;10116;53.112;7.356;2024-03-06T13:50:14;10.20;;;8.50;;
19907;SDS011;10116;53.112;7.356;2024-03-06T13:52:40;10.87;;;8.93;;
19907;SDS011;10116;53.112;7.356;2024-03-06T13:55:07;9.40;;;8.50;;
19907;SDS011;10116;53.112;7.356;2024-03-06T13:57:33;9.83;;;8.83;;
19907;SDS011;10116;53.112;7.356;2024-03-06T14:00:03;11.30;;;9.87;;
19907;SDS011;10116;53.112;7.356;2024-03-06T14:02:30;10.90;;;9.67;;
19907;SDS011;10116;53.112;7.356;2024-03-06T14:04:56;10.23;;;9.13;;
19907;SDS011;10116;53.112;7.356;2024-03-06T14:07:22;9.30;;;8.40;;
19907;SDS011;10116;53.112;7.356;2024-03-06T14:09:49;9.80;;;8.83;;
19907;SDS011;10116;53.112;7.356;2024-03-06T14:12:15;9.27;;;8.37;;
19907;SDS011;10116;53.112;7.356;2024-03-06T14:14:41;9.43;;;8.53;;
19907;SDS011;10116;53.112;7.356;2024-03-06T14:17:06;9.30;;;8.03;;
19907;SDS011;10116;53.112;7.356;2024-03-06T14:19:32;10.07;;;9.07;;
19907;SDS011;10116;53.112;7.356;2024-03-06T14:21:58;9.63;;;8.53;;
19907;SDS011;10116;53.112;7.356;2024-03-06T14:24:23;9.20;;;8.40;;
19907;SDS011;10116;53.112;7.356;2024-03-06T14:26:49;10.40;;;8.50;;
19907;SDS011;10116;53.112;7.356;2024-03-06T14:29:15;9.70;;;8.70;;
19907;SDS011;10116;53.112;7.356;2024-03-06T14:31:40;8.93;;;8.03;;
19907;SDS011;10116;53.112;7.356;2024-03-06T14:34:06;9.33;;;8.37;;
19907;SDS011;10116;53.112;7.356;2024-03-06T14:36:32;9.57;;;8.53;;
19907;SDS011;10116;53.112;7.356;2024-03-06T14:38:59;11.37;;;9.30;;
19907;SDS011;10116;53.112;7.356;2024-03-06T14:41:24;9.77;;;8.73;;
19907;SDS011;10116;53.112;7.356;2024-03-06T14:43:50;9.90;;;8.87;;
19907;SDS011;10116;53.112;7.356;2024-03-06T14:46:15;10.07;;;9.07;;
19907;SDS011;10116;53.112;7.356;2024-03-06T14:48:41;13.23;;;9.47;;
19907;SDS011;10116;53.112;7.356;2024-03-06T14:51:07;14.00;;;9.67;;
19907;SDS011;10116;53.112;7.356;2024-03-06T14:53:38;12.43;;;9.20;;
19907;SDS011;10116;53.112;7.356;2024-03-06T14:56:04;14.30;;;9.27;;